createdAt,value
2023-05-04T00:02:23.872Z,100.00
2023-05-04T00:04:54.763Z,100.00
2023-05-04T00:07:21.930Z,100.00
2023-05-04T00:09:50.242Z,100.00
2023-05-04T00:12:18.269Z,100.00
2023-05-04T00:14:45.329Z,100.00
2023-05-04T00:17:12.707Z,100.00
2023-05-04T00:19:42.263Z,100.00
2023-05-04T00:22:09.697Z,100.00
2023-05-04T00:24:36.863Z,100.00
2023-05-04T00:27:04.483Z,100.00
2023-05-04T00:29:32.245Z,100.00
2023-05-04T00:31:59.412Z,100.00
2023-05-04T00:34:26.887Z,100.00
2023-05-04T00:36:54.034Z,100.00
2023-05-04T00:39:21.159Z,100.00
2023-05-04T00:41:48.653Z,100.00
2023-05-04T00:44:15.756Z,100.00
2023-05-04T00:46:43.037Z,100.00
2023-05-04T00:49:11.358Z,100.00
2023-05-04T00:51:39.423Z,100.00
2023-05-04T00:54:06.630Z,100.00
2023-05-04T00:56:39.085Z,100.00
2023-05-04T00:59:06.362Z,100.00
2023-05-04T01:01:34.438Z,100.00
2023-05-04T01:04:02.040Z,100.00
2023-05-04T01:06:48.831Z,100.00
2023-05-04T01:09:28.509Z,100.00
2023-05-04T01:12:25.797Z,100.00
2023-05-04T01:14:56.364Z,100.00
2023-05-04T01:17:23.450Z,100.00
2023-05-04T01:19:53.894Z,100.00
2023-05-04T01:22:21.998Z,100.00
2023-05-04T01:24:50.618Z,100.00
2023-05-04T01:27:31.175Z,100.00
2023-05-04T01:30:09.270Z,100.00
2023-05-04T01:32:37.490Z,100.00
2023-05-04T01:35:05.449Z,100.00
2023-05-04T01:37:32.524Z,100.00
2023-05-04T01:39:59.678Z,100.00
2023-05-04T01:42:27.083Z,100.00
2023-05-04T01:44:54.196Z,100.00
2023-05-04T01:47:21.277Z,100.00
2023-05-04T01:49:49.659Z,100.00
2023-05-04T01:52:16.794Z,100.00
2023-05-04T01:54:44.553Z,100.00
2023-05-04T01:57:12.153Z,100.00
2023-05-04T01:59:39.279Z,100.00
2023-05-04T02:02:06.609Z,100.00
2023-05-04T02:04:34.094Z,100.00
2023-05-04T02:07:01.394Z,100.00
2023-05-04T02:09:29.407Z,100.00
2023-05-04T02:11:56.864Z,100.00
2023-05-04T02:14:24.479Z,100.00
2023-05-04T02:16:51.946Z,100.00
2023-05-04T02:19:19.373Z,100.00
2023-05-04T02:21:47.329Z,100.00
2023-05-04T02:24:14.511Z,100.00
2023-05-04T02:26:41.998Z,100.00
2023-05-04T02:29:09.120Z,100.00
2023-05-04T02:31:36.397Z,100.00
2023-05-04T02:34:03.754Z,100.00
2023-05-04T02:36:31.497Z,100.00
2023-05-04T02:39:00.481Z,100.00
2023-05-04T02:41:27.637Z,100.00
2023-05-04T02:43:54.685Z,100.00
2023-05-04T02:46:22.148Z,100.00
2023-05-04T02:48:49.266Z,100.00
2023-05-04T02:51:18.319Z,100.00
2023-05-04T02:53:45.764Z,100.00
2023-05-04T02:56:12.902Z,100.00
2023-05-04T02:58:39.980Z,100.00
2023-05-04T03:01:07.446Z,100.00
2023-05-04T03:03:34.502Z,100.00
2023-05-04T03:06:01.680Z,100.00
2023-05-04T03:08:30.197Z,100.00
2023-05-04T03:10:57.309Z,100.00
2023-05-04T03:13:24.383Z,100.00
2023-05-04T03:15:51.828Z,100.00
2023-05-04T03:18:18.988Z,100.00
2023-05-04T03:20:47.325Z,100.00
2023-05-04T03:23:16.368Z,100.00
2023-05-04T03:25:43.510Z,100.00
2023-05-04T03:28:10.616Z,100.00
2023-05-04T03:30:38.285Z,100.00
2023-05-04T03:33:05.384Z,100.00
2023-05-04T03:35:32.488Z,100.00
2023-05-04T03:38:01.806Z,100.00
2023-05-04T03:40:28.923Z,100.00
2023-05-04T03:42:56.065Z,100.00
2023-05-04T03:45:24.074Z,100.00
2023-05-04T03:47:51.368Z,100.00
2023-05-04T03:50:21.360Z,100.00
2023-05-04T03:52:49.498Z,100.00
2023-05-04T03:55:17.197Z,100.00
2023-05-04T03:57:47.809Z,100.00
2023-05-04T04:00:15.847Z,100.00
2023-05-04T04:02:42.975Z,100.00
2023-05-04T04:05:14.696Z,100.00
2023-05-04T04:07:42.118Z,100.00
2023-05-04T04:10:10.052Z,100.00
2023-05-04T04:12:37.605Z,100.00
2023-05-04T04:15:05.224Z,100.00
2023-05-04T04:17:32.310Z,100.00
2023-05-04T04:19:59.766Z,100.00
2023-05-04T04:22:27.271Z,100.00
2023-05-04T04:24:54.270Z,100.00
2023-05-04T04:27:21.687Z,100.00
2023-05-04T04:29:48.761Z,100.00
2023-05-04T04:32:17.714Z,100.00
2023-05-04T04:34:45.086Z,100.00
2023-05-04T04:37:12.591Z,100.00
2023-05-04T04:39:40.506Z,100.00
2023-05-04T04:42:07.890Z,100.00
2023-05-04T04:44:35.161Z,100.00
2023-05-04T04:47:06.678Z,100.00
2023-05-04T04:49:34.970Z,100.00
2023-05-04T04:52:02.841Z,100.00
2023-05-04T04:54:30.208Z,100.00
2023-05-04T04:56:57.544Z,100.00
2023-05-04T04:59:24.892Z,100.00
2023-05-04T05:01:52.219Z,100.00
2023-05-04T05:04:19.961Z,100.00
2023-05-04T05:06:47.781Z,100.00
2023-05-04T05:09:14.861Z,100.00
2023-05-04T05:11:42.270Z,100.00
2023-05-04T05:14:09.349Z,100.00
2023-05-04T05:16:36.523Z,100.00
2023-05-04T05:19:03.941Z,100.00
2023-05-04T05:21:30.953Z,99.27
2023-05-04T05:23:57.954Z,99.48
2023-05-04T05:26:25.378Z,97.90
2023-05-04T05:28:52.487Z,98.23
2023-05-04T05:31:19.585Z,94.82
2023-05-04T05:33:46.974Z,94.78
2023-05-04T05:36:14.584Z,93.46
2023-05-04T05:38:41.687Z,92.96
2023-05-04T05:41:09.884Z,89.19
2023-05-04T05:43:38.680Z,87.69
2023-05-04T05:46:07.213Z,87.18
2023-05-04T05:48:34.723Z,87.41
2023-05-04T05:51:01.955Z,83.58
2023-05-04T05:53:29.043Z,82.78
2023-05-04T05:55:56.371Z,81.23
2023-05-04T05:58:23.564Z,79.92
2023-05-04T06:00:50.720Z,78.10
2023-05-04T06:03:18.316Z,77.35
2023-05-04T06:05:45.446Z,74.88
2023-05-04T06:08:12.570Z,73.10
2023-05-04T06:10:40.133Z,67.00
2023-05-04T06:13:07.377Z,62.12
2023-05-04T06:15:34.985Z,57.31
2023-05-04T06:18:02.882Z,56.93
2023-05-04T06:20:30.017Z,57.98
2023-05-04T06:22:57.357Z,54.12
2023-05-04T06:25:24.735Z,56.27
2023-05-04T06:27:51.877Z,54.64
2023-05-04T06:30:19.096Z,54.56
2023-05-04T06:32:47.085Z,55.03
2023-05-04T06:35:14.305Z,54.85
2023-05-04T06:37:41.722Z,51.98
2023-05-04T06:40:09.716Z,50.39
2023-05-04T06:42:37.025Z,49.59
2023-05-04T06:45:04.680Z,49.56
2023-05-04T06:47:35.491Z,49.59
2023-05-04T06:50:07.146Z,51.84
2023-05-04T06:52:34.584Z,49.80
2023-05-04T06:55:01.800Z,48.99
2023-05-04T06:57:29.844Z,46.69
2023-05-04T06:59:57.287Z,48.70
2023-05-04T07:02:24.544Z,47.85
2023-05-04T07:04:52.845Z,47.69
2023-05-04T07:07:20.254Z,50.65
2023-05-04T07:09:48.212Z,48.49
2023-05-04T07:12:15.334Z,46.56
2023-05-04T07:14:42.613Z,45.51
2023-05-04T07:17:10.391Z,45.90
2023-05-04T07:19:37.551Z,48.18
2023-05-04T07:22:04.973Z,46.70
2023-05-04T07:24:32.086Z,46.30
2023-05-04T07:26:59.706Z,44.53
2023-05-04T07:29:27.099Z,43.61
2023-05-04T07:31:54.303Z,40.59
2023-05-04T07:34:25.304Z,39.84
2023-05-04T07:37:04.889Z,41.13
2023-05-04T07:39:35.107Z,42.20
2023-05-04T07:42:06.038Z,40.04
2023-05-04T07:44:33.144Z,38.48
2023-05-04T07:47:01.873Z,37.94
2023-05-04T07:49:29.410Z,37.07
2023-05-04T07:51:56.512Z,38.25
2023-05-04T07:54:23.636Z,38.63
2023-05-04T07:56:51.233Z,37.63
2023-05-04T07:59:18.866Z,37.76
2023-05-04T08:01:47.256Z,38.70
2023-05-04T08:04:14.800Z,38.05
2023-05-04T08:06:41.996Z,41.36
2023-05-04T08:09:09.414Z,43.22
2023-05-04T08:11:38.015Z,41.08
2023-05-04T08:14:05.566Z,38.59
2023-05-04T08:16:32.837Z,38.69
2023-05-04T08:19:01.388Z,40.70
2023-05-04T08:21:28.890Z,40.01
2023-05-04T08:23:56.229Z,40.71
2023-05-04T08:26:24.400Z,39.59
2023-05-04T08:28:51.459Z,41.89
2023-05-04T08:31:18.796Z,41.10
2023-05-04T08:33:46.295Z,46.73
2023-05-04T08:36:13.513Z,48.99
2023-05-04T08:38:40.612Z,50.76
2023-05-04T08:41:09.055Z,54.30
2023-05-04T08:43:37.155Z,53.52
2023-05-04T08:46:04.937Z,52.69
2023-05-04T08:48:35.563Z,51.96
2023-05-04T08:51:04.441Z,49.88
2023-05-04T08:53:34.170Z,46.60
2023-05-04T08:56:04.198Z,45.92
2023-05-04T08:58:31.978Z,47.67
2023-05-04T09:01:01.289Z,48.46
2023-05-04T09:03:30.231Z,46.18
2023-05-04T09:05:58.909Z,47.84
2023-05-04T09:08:26.829Z,46.59
2023-05-04T09:10:54.203Z,50.93
2023-05-04T09:13:21.538Z,50.03
2023-05-04T09:15:58.712Z,51.60
2023-05-04T09:18:40.007Z,52.07
2023-05-04T09:21:08.133Z,52.44
2023-05-04T09:24:04.842Z,52.02
2023-05-04T09:26:33.368Z,52.51
2023-05-04T09:29:14.021Z,53.00
2023-05-04T09:31:44.752Z,51.04
2023-05-04T09:34:12.168Z,49.51
2023-05-04T09:36:39.251Z,48.46
2023-05-04T09:39:13.379Z,49.30
2023-05-04T09:41:41.753Z,48.09
2023-05-04T09:44:18.992Z,50.19
2023-05-04T09:46:57.427Z,48.72
2023-05-04T09:49:39.039Z,50.72
2023-05-04T09:52:07.006Z,48.85
2023-05-04T09:54:36.268Z,51.61
2023-05-04T09:57:16.548Z,51.04
2023-05-04T09:59:43.894Z,50.38
2023-05-04T10:02:22.091Z,50.30
2023-05-04T10:04:52.186Z,50.16
2023-05-04T10:07:20.752Z,51.92
2023-05-04T10:09:48.909Z,50.65
2023-05-04T10:12:16.408Z,50.99
2023-05-04T10:14:46.912Z,50.02
2023-05-04T10:17:34.257Z,50.21
2023-05-04T10:20:33.331Z,49.58
2023-05-04T10:23:12.206Z,51.85
2023-05-04T10:25:48.826Z,53.49
2023-05-04T10:28:34.629Z,52.67
2023-05-04T10:31:02.332Z,52.22
2023-05-04T10:33:43.256Z,51.50
2023-05-04T10:36:11.632Z,51.82
2023-05-04T10:38:40.421Z,54.39
2023-05-04T10:41:21.479Z,53.06
2023-05-04T10:43:50.707Z,52.70
2023-05-04T10:46:22.573Z,54.20
2023-05-04T10:48:51.060Z,52.17
2023-05-04T10:51:19.792Z,51.64
2023-05-04T10:53:47.978Z,55.18
2023-05-04T10:56:28.438Z,57.87
2023-05-04T10:58:55.704Z,57.44
2023-05-04T11:01:23.239Z,57.99
2023-05-04T11:03:51.858Z,56.61
2023-05-04T11:06:24.565Z,57.00
2023-05-04T11:09:02.631Z,56.35
2023-05-04T11:11:29.820Z,54.64
2023-05-04T11:13:57.317Z,54.56
2023-05-04T11:16:25.879Z,50.16
2023-05-04T11:19:07.213Z,49.39
2023-05-04T11:21:34.548Z,51.84
2023-05-04T11:24:02.748Z,51.05
2023-05-04T11:26:29.779Z,51.95
2023-05-04T11:28:57.219Z,53.43
2023-05-04T11:31:25.762Z,51.63
2023-05-04T11:33:55.257Z,54.29
2023-05-04T11:36:23.199Z,51.72
2023-05-04T11:38:51.030Z,52.03
2023-05-04T11:41:18.084Z,49.63
2023-05-04T11:43:46.692Z,52.87
2023-05-04T11:46:14.820Z,54.50
2023-05-04T11:48:42.307Z,54.23
2023-05-04T11:51:09.907Z,54.98
2023-05-04T11:53:38.655Z,55.17
2023-05-04T11:56:08.923Z,56.89
2023-05-04T11:58:36.973Z,58.33
2023-05-04T12:01:04.661Z,58.78
2023-05-04T12:03:51.197Z,59.40
2023-05-04T12:06:30.292Z,61.68
2023-05-04T12:09:06.290Z,62.96
2023-05-04T12:11:34.778Z,61.06
2023-05-04T12:14:10.221Z,60.59
2023-05-04T12:16:38.747Z,61.63
2023-05-04T12:19:08.147Z,63.24
2023-05-04T12:21:36.026Z,60.96
2023-05-04T12:24:03.983Z,62.48
2023-05-04T12:26:31.430Z,63.65
2023-05-04T12:28:58.860Z,64.53
2023-05-04T12:31:25.989Z,62.89
2023-05-04T12:33:53.308Z,63.76
2023-05-04T12:36:21.490Z,63.32
2023-05-04T12:38:48.677Z,64.12
2023-05-04T12:41:16.042Z,62.85
2023-05-04T12:43:43.102Z,64.19
2023-05-04T12:46:10.609Z,64.77
2023-05-04T12:48:38.056Z,63.05
2023-05-04T12:51:05.200Z,62.29
2023-05-04T12:53:32.506Z,63.15
2023-05-04T12:56:01.132Z,60.11
2023-05-04T12:58:28.265Z,59.48
2023-05-04T13:00:56.634Z,59.72
2023-05-04T13:03:24.135Z,57.75
2023-05-04T13:05:51.411Z,56.69
2023-05-04T13:08:19.743Z,58.34
2023-05-04T13:10:47.261Z,58.66
2023-05-04T13:13:18.189Z,56.38
2023-05-04T13:15:45.441Z,55.91
2023-05-04T13:18:13.048Z,56.66
2023-05-04T13:20:40.840Z,58.91
2023-05-04T13:23:08.027Z,57.25
2023-05-04T13:25:35.624Z,56.17
2023-05-04T13:28:03.478Z,55.94
2023-05-04T13:30:30.652Z,54.55
2023-05-04T13:32:58.069Z,55.31
2023-05-04T13:35:25.292Z,54.14
2023-05-04T13:37:56.062Z,54.79
2023-05-04T13:40:23.646Z,54.90
2023-05-04T13:42:51.545Z,53.11
2023-05-04T13:45:19.730Z,54.57
2023-05-04T13:47:47.060Z,53.97
2023-05-04T13:50:14.280Z,53.84
2023-05-04T13:52:41.340Z,56.41
2023-05-04T13:55:09.270Z,55.11
2023-05-04T13:57:36.496Z,57.02
2023-05-04T14:00:08.140Z,56.08
2023-05-04T14:02:37.511Z,55.69
2023-05-04T14:05:06.067Z,55.50
2023-05-04T14:07:34.553Z,55.37
2023-05-04T14:10:01.820Z,56.40
2023-05-04T14:12:29.362Z,57.25
2023-05-04T14:14:57.479Z,57.68
2023-05-04T14:17:25.173Z,57.24
2023-05-04T14:19:52.604Z,57.94
2023-05-04T14:22:19.733Z,58.22
2023-05-04T14:24:46.812Z,58.00
2023-05-04T14:27:14.185Z,58.00
2023-05-04T14:29:41.325Z,60.53
2023-05-04T14:32:08.453Z,58.57
2023-05-04T14:34:36.547Z,58.85
2023-05-04T14:37:04.116Z,60.57
2023-05-04T14:39:31.203Z,59.82
2023-05-04T14:41:58.642Z,59.19
2023-05-04T14:44:27.872Z,60.14
2023-05-04T14:46:55.594Z,61.17
2023-05-04T14:49:35.895Z,60.80
2023-05-04T14:52:04.955Z,60.45
2023-05-04T14:54:32.600Z,60.92
2023-05-04T14:56:59.896Z,60.75
2023-05-04T14:59:27.105Z,61.53
2023-05-04T15:01:55.396Z,60.82
2023-05-04T15:04:22.948Z,61.59
2023-05-04T15:06:50.298Z,60.82
2023-05-04T15:09:17.759Z,59.92
2023-05-04T15:11:44.759Z,61.51
2023-05-04T15:14:11.973Z,60.92
2023-05-04T15:16:39.392Z,60.03
2023-05-04T15:19:07.120Z,61.83
2023-05-04T15:21:34.266Z,62.27
2023-05-04T15:24:02.088Z,61.28
2023-05-04T15:26:30.944Z,61.30
2023-05-04T15:28:58.212Z,62.27
2023-05-04T15:31:25.586Z,61.38
2023-05-04T15:33:53.870Z,61.50
2023-05-04T15:36:21.346Z,62.31
2023-05-04T15:38:48.824Z,62.42
2023-05-04T15:41:15.880Z,62.48
2023-05-04T15:43:42.973Z,62.78
2023-05-04T15:46:10.460Z,64.00
2023-05-04T15:48:37.608Z,63.44
2023-05-04T15:51:11.202Z,65.46
2023-05-04T15:53:39.128Z,65.30
2023-05-04T15:56:06.477Z,66.10
2023-05-04T15:58:33.729Z,67.09
2023-05-04T16:01:03.958Z,67.68
2023-05-04T16:03:31.966Z,67.85
2023-05-04T16:05:59.235Z,66.43
2023-05-04T16:08:26.391Z,65.11
2023-05-04T16:10:53.958Z,65.50
2023-05-04T16:13:21.206Z,65.52
2023-05-04T16:15:51.798Z,65.16
2023-05-04T16:18:19.758Z,65.09
2023-05-04T16:20:47.668Z,65.44
2023-05-04T16:23:17.267Z,65.58
2023-05-04T16:25:44.720Z,66.41
2023-05-04T16:28:12.259Z,66.41
2023-05-04T16:30:39.432Z,66.39
2023-05-04T16:33:07.219Z,66.21
2023-05-04T16:35:35.135Z,67.48
2023-05-04T16:38:02.217Z,67.52
2023-05-04T16:40:32.273Z,67.77
2023-05-04T16:42:59.532Z,66.96
2023-05-04T16:45:31.264Z,68.15
2023-05-04T16:47:59.201Z,67.84
2023-05-04T16:50:26.230Z,68.68
2023-05-04T16:52:53.567Z,68.69
2023-05-04T16:55:21.503Z,69.84
2023-05-04T16:57:49.073Z,70.32
2023-05-04T17:00:16.576Z,70.92
2023-05-04T17:02:44.006Z,71.40
2023-05-04T17:05:11.355Z,71.92
2023-05-04T17:07:43.303Z,71.82
2023-05-04T17:10:11.213Z,72.25
2023-05-04T17:12:38.660Z,73.35
2023-05-04T17:15:06.202Z,73.30
2023-05-04T17:17:33.489Z,73.73
2023-05-04T17:20:00.913Z,73.96
2023-05-04T17:22:27.991Z,73.58
2023-05-04T17:24:55.334Z,74.79
2023-05-04T17:27:22.365Z,75.24
2023-05-04T17:29:49.474Z,75.58
2023-05-04T17:32:16.845Z,76.02
2023-05-04T17:34:43.921Z,76.15
2023-05-04T17:37:10.995Z,76.29
2023-05-04T17:39:38.331Z,78.02
2023-05-04T17:42:05.787Z,78.54
2023-05-04T17:44:32.890Z,79.17
2023-05-04T17:47:00.333Z,79.19
2023-05-04T17:49:27.398Z,79.09
2023-05-04T17:51:56.401Z,79.19
2023-05-04T17:54:23.715Z,80.25
2023-05-04T17:56:50.942Z,80.57
2023-05-04T17:59:18.008Z,81.14
2023-05-04T18:01:45.880Z,81.04
2023-05-04T18:04:16.394Z,80.77
2023-05-04T18:06:43.407Z,81.12
2023-05-04T18:09:10.796Z,81.88
2023-05-04T18:11:38.119Z,83.25
2023-05-04T18:14:05.113Z,83.62
2023-05-04T18:16:36.078Z,83.88
2023-05-04T18:19:03.613Z,83.83
2023-05-04T18:21:30.598Z,83.98
2023-05-04T18:23:57.560Z,83.82
2023-05-04T18:26:24.773Z,83.50
2023-05-04T18:28:51.786Z,82.85
2023-05-04T18:31:19.028Z,82.32
2023-05-04T18:33:46.686Z,82.49
2023-05-04T18:36:13.894Z,83.33
2023-05-04T18:38:41.161Z,82.96
2023-05-04T18:41:08.634Z,84.37
2023-05-04T18:43:35.783Z,84.41
2023-05-04T18:46:07.566Z,84.97
2023-05-04T18:48:35.054Z,85.96
2023-05-04T18:51:02.680Z,87.68
2023-05-04T18:53:29.950Z,87.43
2023-05-04T18:56:08.157Z,88.21
2023-05-04T18:58:39.003Z,88.54
2023-05-04T19:01:06.655Z,88.77
2023-05-04T19:03:34.250Z,88.69
2023-05-04T19:06:01.358Z,89.28
2023-05-04T19:08:28.485Z,90.60
2023-05-04T19:11:00.361Z,91.76
2023-05-04T19:13:27.547Z,92.79
2023-05-04T19:15:54.625Z,92.79
2023-05-04T19:18:22.180Z,93.15
2023-05-04T19:20:49.356Z,92.85
2023-05-04T19:23:16.562Z,91.54
2023-05-04T19:25:45.061Z,92.06
2023-05-04T19:28:12.478Z,93.69
2023-05-04T19:30:40.366Z,94.62
2023-05-04T19:33:10.379Z,94.62
2023-05-04T19:35:37.532Z,95.15
2023-05-04T19:38:06.633Z,95.46
2023-05-04T19:40:34.566Z,94.71
2023-05-04T19:43:01.811Z,93.96
2023-05-04T19:45:28.956Z,93.76
2023-05-04T19:47:56.555Z,93.79
2023-05-04T19:50:23.928Z,94.10
2023-05-04T19:52:51.773Z,95.09
2023-05-04T19:55:19.315Z,95.91
2023-05-04T19:57:47.683Z,96.65
2023-05-04T20:00:17.050Z,98.17
2023-05-04T20:02:44.904Z,99.34
2023-05-04T20:05:12.826Z,99.61
2023-05-04T20:07:39.882Z,99.38
2023-05-04T20:10:08.183Z,98.45
2023-05-04T20:12:35.637Z,99.29
2023-05-04T20:15:03.891Z,99.75
2023-05-04T20:17:31.493Z,99.93
2023-05-04T20:19:58.510Z,100.00
2023-05-04T20:22:25.512Z,100.00
2023-05-04T20:24:52.829Z,100.00
2023-05-04T20:27:19.968Z,100.00
2023-05-04T20:29:47.051Z,100.00
2023-05-04T20:32:14.849Z,100.00
2023-05-04T20:34:43.095Z,100.00
2023-05-04T20:37:10.214Z,100.00
2023-05-04T20:39:37.815Z,100.00
2023-05-04T20:42:05.753Z,100.00
2023-05-04T20:44:33.551Z,100.00
2023-05-04T20:47:00.962Z,100.00
2023-05-04T20:49:28.026Z,100.00
2023-05-04T20:51:55.597Z,100.00
2023-05-04T20:54:22.884Z,100.00
2023-05-04T20:56:50.041Z,100.00
2023-05-04T20:59:17.106Z,100.00
2023-05-04T21:01:44.582Z,100.00
2023-05-04T21:04:11.782Z,100.00
2023-05-04T21:06:38.839Z,100.00
2023-05-04T21:09:06.521Z,100.00
2023-05-04T21:11:33.790Z,100.00
2023-05-04T21:14:00.831Z,100.00
2023-05-04T21:16:28.337Z,100.00
2023-05-04T21:18:55.433Z,100.00
2023-05-04T21:21:22.562Z,100.00
2023-05-04T21:23:50.003Z,100.00
2023-05-04T21:26:17.153Z,100.00
2023-05-04T21:28:44.290Z,100.00
2023-05-04T21:31:11.992Z,100.00
2023-05-04T21:33:39.105Z,100.00
2023-05-04T21:36:15.794Z,100.00
2023-05-04T21:38:43.359Z,99.01
2023-05-04T21:41:14.747Z,98.42
2023-05-04T21:43:43.509Z,98.17
2023-05-04T21:46:12.153Z,98.47
2023-05-04T21:48:39.922Z,98.66
2023-05-04T21:51:07.034Z,98.97
2023-05-04T21:53:34.430Z,99.17
2023-05-04T21:56:05.919Z,99.48
2023-05-04T21:58:33.119Z,100.00
2023-05-04T22:01:00.622Z,99.60
2023-05-04T22:03:28.793Z,99.62
2023-05-04T22:05:57.920Z,99.78
2023-05-04T22:08:25.670Z,99.69
2023-05-04T22:10:54.403Z,99.68
2023-05-04T22:13:22.013Z,99.84
2023-05-04T22:15:50.629Z,100.00
2023-05-04T22:18:18.453Z,99.64
2023-05-04T22:20:46.010Z,99.51
2023-05-04T22:23:14.236Z,96.25
2023-05-04T22:25:41.679Z,95.65
2023-05-04T22:28:08.802Z,95.13
2023-05-04T22:30:36.113Z,94.68
2023-05-04T22:33:03.604Z,94.89
2023-05-04T22:35:33.818Z,93.12
2023-05-04T22:38:00.801Z,93.13
2023-05-04T22:40:28.174Z,92.72
2023-05-04T22:42:55.262Z,92.24
2023-05-04T22:45:22.441Z,91.61
2023-05-04T22:47:49.855Z,90.58
2023-05-04T22:50:17.509Z,90.98
2023-05-04T22:52:44.599Z,90.79
2023-05-04T22:55:12.388Z,91.89
2023-05-04T22:57:39.446Z,92.36
2023-05-04T23:00:07.738Z,92.58
2023-05-04T23:02:36.133Z,93.43
2023-05-04T23:05:03.931Z,94.09
2023-05-04T23:07:31.170Z,94.53
2023-05-04T23:09:59.689Z,95.21
2023-05-04T23:12:27.939Z,95.44
2023-05-04T23:14:55.012Z,92.50
2023-05-04T23:17:22.456Z,90.12
2023-05-04T23:19:49.954Z,90.67
2023-05-04T23:22:17.215Z,90.87
2023-05-04T23:24:44.618Z,90.69
2023-05-04T23:27:11.697Z,86.92
2023-05-04T23:29:38.956Z,87.02
2023-05-04T23:32:06.462Z,87.43
2023-05-04T23:34:33.690Z,86.13
2023-05-04T23:37:01.108Z,83.92
2023-05-04T23:39:28.569Z,83.58
2023-05-04T23:41:55.786Z,83.42
2023-05-04T23:44:23.017Z,84.69
2023-05-04T23:46:50.373Z,85.28
2023-05-04T23:49:17.473Z,86.18
2023-05-04T23:51:44.723Z,85.95
2023-05-04T23:54:12.145Z,87.34
2023-05-04T23:56:39.306Z,87.10
2023-05-04T23:59:06.597Z,88.40
